Petoskey, Michigan
Current Conditions -  °F | °C
As of 5:35 PM on Sunday 23 Nov 2014 (Local Time) from KMGN Reporting Station
Light Rain Light Rain  
Wind Chill: 43°   Ceiling: 1600
Heat Index: 43°   Visibility: 3mi
Dew Point: 43°   Wind: 3mph
Humidity: 98%   Direction: 60°ENE
Pressure: 29.54"   Gusts: NA
Location:  45.38°N, 84.96°W
Report Text: KMGN 232235Z AUTO 06003KT 3SM -RA OVC016 06/06 A2954 RMK AO2 T00630060
Loading
Personal Weather Stations






























Interactive Weather Map New forecast layout! Learn more

10-Day Weather Forecast

Advertisements
Track Severe Weather on mobile